sensor_id;sensor_type;location;lat;lon;timestamp;P1;durP1;ratioP1;P2;durP2;ratioP2
12878;SDS011;20617;49.476;10.986;2023-03-01T00:00:23;22.40;;;15.13;;
12878;SDS011;20617;49.476;10.986;2023-03-01T00:02:27;24.50;;;15.15;;
12878;SDS011;20617;49.476;10.986;2023-03-01T00:04:33;24.65;;;15.27;;
12878;SDS011;20617;49.476;10.986;2023-03-01T00:06:42;23.27;;;16.40;;
12878;SDS011;20617;49.476;10.986;2023-03-01T00:08:49;24.50;;;15.07;;
12878;SDS011;20617;49.476;10.986;2023-03-01T00:11:01;23.48;;;15.90;;
12878;SDS011;20617;49.476;10.986;2023-03-01T00:13:07;23.50;;;16.02;;
12878;SDS011;20617;49.476;10.986;2023-03-01T00:15:12;22.58;;;15.55;;
12878;SDS011;20617;49.476;10.986;2023-03-01T00:17:17;21.80;;;15.70;;
12878;SDS011;20617;49.476;10.986;2023-03-01T00:19:21;24.30;;;14.90;;
12878;SDS011;20617;49.476;10.986;2023-03-01T00:21:26;24.30;;;16.63;;
12878;SDS011;20617;49.476;10.986;2023-03-01T00:23:36;22.15;;;15.23;;
12878;SDS011;20617;49.476;10.986;2023-03-01T00:25:41;22.58;;;14.88;;
12878;SDS011;20617;49.476;10.986;2023-03-01T00:27:46;20.30;;;15.05;;
12878;SDS011;20617;49.476;10.986;2023-03-01T00:29:52;19.70;;;14.43;;
12878;SDS011;20617;49.476;10.986;2023-03-01T00:31:56;22.27;;;15.10;;
12878;SDS011;20617;49.476;10.986;2023-03-01T00:34:02;23.35;;;15.57;;
12878;SDS011;20617;49.476;10.986;2023-03-01T00:36:08;21.88;;;15.30;;
12878;SDS011;20617;49.476;10.986;2023-03-01T00:38:15;23.13;;;15.77;;
12878;SDS011;20617;49.476;10.986;2023-03-01T00:40:22;21.65;;;15.07;;
12878;SDS011;20617;49.476;10.986;2023-03-01T00:42:27;21.48;;;15.43;;
12878;SDS011;20617;49.476;10.986;2023-03-01T00:44:32;22.92;;;15.90;;
12878;SDS011;20617;49.476;10.986;2023-03-01T00:46:37;24.77;;;16.15;;
12878;SDS011;20617;49.476;10.986;2023-03-01T00:48:42;21.77;;;15.82;;
12878;SDS011;20617;49.476;10.986;2023-03-01T00:50:47;23.70;;;15.35;;
12878;SDS011;20617;49.476;10.986;2023-03-01T00:52:52;24.27;;;15.82;;
12878;SDS011;20617;49.476;10.986;2023-03-01T00:54:57;20.77;;;15.30;;
12878;SDS011;20617;49.476;10.986;2023-03-01T00:57:06;23.08;;;16.33;;
12878;SDS011;20617;49.476;10.986;2023-03-01T00:59:10;22.90;;;15.40;;
12878;SDS011;20617;49.476;10.986;2023-03-01T01:01:19;26.73;;;16.05;;
12878;SDS011;20617;49.476;10.986;2023-03-01T01:03:29;23.85;;;15.65;;
12878;SDS011;20617;49.476;10.986;2023-03-01T01:05:34;22.10;;;15.52;;
12878;SDS011;20617;49.476;10.986;2023-03-01T01:07:39;21.25;;;14.45;;
12878;SDS011;20617;49.476;10.986;2023-03-01T01:09:44;21.23;;;15.80;;
12878;SDS011;20617;49.476;10.986;2023-03-01T01:11:50;23.00;;;14.50;;
12878;SDS011;20617;49.476;10.986;2023-03-01T01:13:58;21.95;;;15.60;;
12878;SDS011;20617;49.476;10.986;2023-03-01T01:16:04;23.85;;;17.10;;
12878;SDS011;20617;49.476;10.986;2023-03-01T01:18:09;23.00;;;16.20;;
12878;SDS011;20617;49.476;10.986;2023-03-01T01:20:17;26.75;;;16.35;;
12878;SDS011;20617;49.476;10.986;2023-03-01T01:22:27;22.10;;;15.98;;
12878;SDS011;20617;49.476;10.986;2023-03-01T01:24:32;23.25;;;16.58;;
12878;SDS011;20617;49.476;10.986;2023-03-01T01:26:37;25.15;;;16.98;;
12878;SDS011;20617;49.476;10.986;2023-03-01T01:28:42;28.58;;;17.52;;
12878;SDS011;20617;49.476;10.986;2023-03-01T01:30:50;24.48;;;16.50;;
12878;SDS011;20617;49.476;10.986;2023-03-01T01:32:54;23.67;;;15.75;;
12878;SDS011;20617;49.476;10.986;2023-03-01T01:34:59;24.98;;;17.27;;
12878;SDS011;20617;49.476;10.986;2023-03-01T01:37:04;25.88;;;16.95;;
12878;SDS011;20617;49.476;10.986;2023-03-01T01:39:09;21.55;;;16.00;;
12878;SDS011;20617;49.476;10.986;2023-03-01T01:41:15;22.88;;;15.95;;
12878;SDS011;20617;49.476;10.986;2023-03-01T01:43:22;25.52;;;15.77;;
12878;SDS011;20617;49.476;10.986;2023-03-01T01:45:30;25.45;;;17.02;;
12878;SDS011;20617;49.476;10.986;2023-03-01T01:47:41;26.88;;;18.45;;
12878;SDS011;20617;49.476;10.986;2023-03-01T01:49:50;26.90;;;17.17;;
12878;SDS011;20617;49.476;10.986;2023-03-01T01:52:03;22.92;;;16.15;;
12878;SDS011;20617;49.476;10.986;2023-03-01T01:54:14;23.83;;;15.48;;
12878;SDS011;20617;49.476;10.986;2023-03-01T01:56:22;21.95;;;14.80;;
12878;SDS011;20617;49.476;10.986;2023-03-01T01:58:29;22.08;;;15.00;;
12878;SDS011;20617;49.476;10.986;2023-03-01T02:00:34;21.67;;;14.98;;
12878;SDS011;20617;49.476;10.986;2023-03-01T02:02:44;24.05;;;17.30;;
12878;SDS011;20617;49.476;10.986;2023-03-01T02:04:55;24.92;;;17.63;;
12878;SDS011;20617;49.476;10.986;2023-03-01T02:07:14;22.55;;;15.90;;
12878;SDS011;20617;49.476;10.986;2023-03-01T02:09:20;23.35;;;15.32;;
12878;SDS011;20617;49.476;10.986;2023-03-01T02:11:29;24.05;;;15.93;;
12878;SDS011;20617;49.476;10.986;2023-03-01T02:13:35;23.45;;;17.70;;
12878;SDS011;20617;49.476;10.986;2023-03-01T02:15:41;23.48;;;15.63;;
12878;SDS011;20617;49.476;10.986;2023-03-01T02:17:50;21.52;;;15.55;;
12878;SDS011;20617;49.476;10.986;2023-03-01T02:20:02;23.33;;;16.58;;
12878;SDS011;20617;49.476;10.986;2023-03-01T02:22:18;23.50;;;16.42;;
12878;SDS011;20617;49.476;10.986;2023-03-01T02:24:28;24.95;;;15.85;;
12878;SDS011;20617;49.476;10.986;2023-03-01T02:26:45;27.52;;;15.75;;
12878;SDS011;20617;49.476;10.986;2023-03-01T02:28:56;25.88;;;15.52;;
12878;SDS011;20617;49.476;10.986;2023-03-01T02:31:02;24.45;;;16.65;;
12878;SDS011;20617;49.476;10.986;2023-03-01T02:33:21;21.45;;;15.88;;
12878;SDS011;20617;49.476;10.986;2023-03-01T02:35:27;26.17;;;16.90;;
12878;SDS011;20617;49.476;10.986;2023-03-01T02:37:36;21.85;;;15.10;;
12878;SDS011;20617;49.476;10.986;2023-03-01T02:39:41;24.23;;;15.32;;
12878;SDS011;20617;49.476;10.986;2023-03-01T02:41:51;20.92;;;14.88;;
12878;SDS011;20617;49.476;10.986;2023-03-01T02:44:00;24.38;;;16.70;;
12878;SDS011;20617;49.476;10.986;2023-03-01T02:46:07;23.67;;;15.80;;
12878;SDS011;20617;49.476;10.986;2023-03-01T02:48:13;23.45;;;17.15;;
12878;SDS011;20617;49.476;10.986;2023-03-01T02:50:22;25.55;;;17.67;;
12878;SDS011;20617;49.476;10.986;2023-03-01T02:52:43;24.30;;;17.97;;
12878;SDS011;20617;49.476;10.986;2023-03-01T02:54:54;23.77;;;16.13;;
12878;SDS011;20617;49.476;10.986;2023-03-01T02:57:03;27.63;;;17.77;;
12878;SDS011;20617;49.476;10.986;2023-03-01T02:59:12;24.52;;;16.88;;
12878;SDS011;20617;49.476;10.986;2023-03-01T03:01:17;22.30;;;15.70;;
12878;SDS011;20617;49.476;10.986;2023-03-01T03:03:22;27.55;;;16.48;;
12878;SDS011;20617;49.476;10.986;2023-03-01T03:05:28;26.80;;;17.70;;
12878;SDS011;20617;49.476;10.986;2023-03-01T03:07:35;22.75;;;16.83;;
12878;SDS011;20617;49.476;10.986;2023-03-01T03:09:41;22.52;;;15.10;;
12878;SDS011;20617;49.476;10.986;2023-03-01T03:13:51;24.30;;;16.63;;
12878;SDS011;20617;49.476;10.986;2023-03-01T03:16:00;24.00;;;16.13;;
12878;SDS011;20617;49.476;10.986;2023-03-01T03:18:08;22.30;;;16.52;;
12878;SDS011;20617;49.476;10.986;2023-03-01T03:20:15;23.75;;;15.20;;
12878;SDS011;20617;49.476;10.986;2023-03-01T03:22:22;25.35;;;17.35;;
12878;SDS011;20617;49.476;10.986;2023-03-01T03:24:30;25.33;;;17.73;;
12878;SDS011;20617;49.476;10.986;2023-03-01T03:26:39;28.70;;;18.88;;
12878;SDS011;20617;49.476;10.986;2023-03-01T03:28:44;24.75;;;15.82;;
12878;SDS011;20617;49.476;10.986;2023-03-01T03:30:49;26.02;;;18.15;;
12878;SDS011;20617;49.476;10.986;2023-03-01T03:32:57;27.67;;;17.08;;
12878;SDS011;20617;49.476;10.986;2023-03-01T03:35:03;23.85;;;16.73;;
12878;SDS011;20617;49.476;10.986;2023-03-01T03:37:13;23.63;;;15.95;;
12878;SDS011;20617;49.476;10.986;2023-03-01T03:39:30;24.70;;;16.60;;
12878;SDS011;20617;49.476;10.986;2023-03-01T03:41:36;25.55;;;16.95;;
12878;SDS011;20617;49.476;10.986;2023-03-01T03:43:41;24.35;;;16.60;;
12878;SDS011;20617;49.476;10.986;2023-03-01T03:45:48;26.42;;;18.55;;
12878;SDS011;20617;49.476;10.986;2023-03-01T03:47:58;24.02;;;15.27;;
12878;SDS011;20617;49.476;10.986;2023-03-01T03:50:03;28.95;;;17.30;;
12878;SDS011;20617;49.476;10.986;2023-03-01T03:52:08;25.27;;;16.67;;
12878;SDS011;20617;49.476;10.986;2023-03-01T03:54:15;24.63;;;16.80;;
12878;SDS011;20617;49.476;10.986;2023-03-01T03:56:20;23.77;;;18.02;;
12878;SDS011;20617;49.476;10.986;2023-03-01T03:58:29;28.85;;;17.52;;
12878;SDS011;20617;49.476;10.986;2023-03-01T04:00:34;25.55;;;17.00;;
12878;SDS011;20617;49.476;10.986;2023-03-01T04:02:40;25.58;;;16.58;;
12878;SDS011;20617;49.476;10.986;2023-03-01T04:04:48;26.13;;;18.02;;
12878;SDS011;20617;49.476;10.986;2023-03-01T04:06:53;24.95;;;16.52;;
12878;SDS011;20617;49.476;10.986;2023-03-01T04:08:58;28.45;;;18.23;;
12878;SDS011;20617;49.476;10.986;2023-03-01T04:11:06;26.02;;;18.38;;
12878;SDS011;20617;49.476;10.986;2023-03-01T04:13:23;28.83;;;17.33;;
12878;SDS011;20617;49.476;10.986;2023-03-01T04:15:28;26.45;;;17.95;;
12878;SDS011;20617;49.476;10.986;2023-03-01T04:17:35;27.98;;;18.23;;
12878;SDS011;20617;49.476;10.986;2023-03-01T04:19:40;26.38;;;18.17;;
12878;SDS011;20617;49.476;10.986;2023-03-01T04:21:48;26.08;;;18.27;;
12878;SDS011;20617;49.476;10.986;2023-03-01T04:23:53;28.23;;;17.02;;
12878;SDS011;20617;49.476;10.986;2023-03-01T04:25:58;26.95;;;18.33;;
12878;SDS011;20617;49.476;10.986;2023-03-01T04:28:03;28.90;;;17.52;;
12878;SDS011;20617;49.476;10.986;2023-03-01T04:30:09;29.10;;;18.40;;
12878;SDS011;20617;49.476;10.986;2023-03-01T04:32:14;26.30;;;17.92;;
12878;SDS011;20617;49.476;10.986;2023-03-01T04:34:20;27.38;;;17.42;;
12878;SDS011;20617;49.476;10.986;2023-03-01T04:36:26;29.35;;;17.77;;
12878;SDS011;20617;49.476;10.986;2023-03-01T04:38:37;23.85;;;16.02;;
12878;SDS011;20617;49.476;10.986;2023-03-01T04:40:43;26.63;;;17.27;;
12878;SDS011;20617;49.476;10.986;2023-03-01T04:42:48;28.33;;;19.20;;
12878;SDS011;20617;49.476;10.986;2023-03-01T04:44:53;26.30;;;16.65;;
12878;SDS011;20617;49.476;10.986;2023-03-01T04:46:58;27.65;;;17.50;;
12878;SDS011;20617;49.476;10.986;2023-03-01T04:49:02;24.45;;;16.85;;
12878;SDS011;20617;49.476;10.986;2023-03-01T04:51:07;25.35;;;15.73;;
12878;SDS011;20617;49.476;10.986;2023-03-01T04:53:15;26.95;;;17.10;;
12878;SDS011;20617;49.476;10.986;2023-03-01T04:55:22;26.08;;;17.23;;
12878;SDS011;20617;49.476;10.986;2023-03-01T04:57:27;23.02;;;15.93;;
12878;SDS011;20617;49.476;10.986;2023-03-01T04:59:32;27.95;;;17.33;;
12878;SDS011;20617;49.476;10.986;2023-03-01T05:03:44;30.65;;;18.77;;
12878;SDS011;20617;49.476;10.986;2023-03-01T05:05:51;30.42;;;18.65;;
12878;SDS011;20617;49.476;10.986;2023-03-01T05:07:58;28.23;;;17.27;;
12878;SDS011;20617;49.476;10.986;2023-03-01T05:10:05;27.17;;;16.35;;
12878;SDS011;20617;49.476;10.986;2023-03-01T05:12:13;28.05;;;17.40;;
12878;SDS011;20617;49.476;10.986;2023-03-01T05:14:18;29.33;;;18.35;;
12878;SDS011;20617;49.476;10.986;2023-03-01T05:18:28;29.55;;;18.33;;
12878;SDS011;20617;49.476;10.986;2023-03-01T05:20:35;23.90;;;16.20;;
12878;SDS011;20617;49.476;10.986;2023-03-01T05:22:40;24.20;;;16.00;;
12878;SDS011;20617;49.476;10.986;2023-03-01T05:24:45;25.73;;;17.48;;
12878;SDS011;20617;49.476;10.986;2023-03-01T05:26:50;25.58;;;17.63;;
12878;SDS011;20617;49.476;10.986;2023-03-01T05:28:58;26.70;;;16.63;;
12878;SDS011;20617;49.476;10.986;2023-03-01T05:31:03;27.92;;;16.73;;
12878;SDS011;20617;49.476;10.986;2023-03-01T05:33:11;26.52;;;17.98;;
12878;SDS011;20617;49.476;10.986;2023-03-01T05:35:17;26.35;;;17.73;;
12878;SDS011;20617;49.476;10.986;2023-03-01T05:37:22;26.98;;;18.45;;
12878;SDS011;20617;49.476;10.986;2023-03-01T05:39:28;26.63;;;17.83;;
12878;SDS011;20617;49.476;10.986;2023-03-01T05:41:33;29.73;;;18.25;;
12878;SDS011;20617;49.476;10.986;2023-03-01T05:43:38;34.47;;;19.67;;
12878;SDS011;20617;49.476;10.986;2023-03-01T05:45:47;25.45;;;17.40;;
12878;SDS011;20617;49.476;10.986;2023-03-01T05:47:52;27.38;;;18.00;;
12878;SDS011;20617;49.476;10.986;2023-03-01T05:49:58;30.58;;;19.38;;
12878;SDS011;20617;49.476;10.986;2023-03-01T05:52:03;30.10;;;18.67;;
12878;SDS011;20617;49.476;10.986;2023-03-01T05:56:13;29.98;;;18.35;;
12878;SDS011;20617;49.476;10.986;2023-03-01T05:58:18;29.85;;;18.20;;
12878;SDS011;20617;49.476;10.986;2023-03-01T06:00:24;27.92;;;17.85;;
12878;SDS011;20617;49.476;10.986;2023-03-01T06:02:32;31.00;;;19.30;;
12878;SDS011;20617;49.476;10.986;2023-03-01T06:04:37;27.92;;;18.17;;
12878;SDS011;20617;49.476;10.986;2023-03-01T06:06:42;31.83;;;18.75;;
12878;SDS011;20617;49.476;10.986;2023-03-01T06:08:46;28.27;;;18.92;;
12878;SDS011;20617;49.476;10.986;2023-03-01T06:10:51;32.72;;;20.70;;
12878;SDS011;20617;49.476;10.986;2023-03-01T06:12:56;28.30;;;18.42;;
12878;SDS011;20617;49.476;10.986;2023-03-01T06:17:07;29.13;;;18.73;;
12878;SDS011;20617;49.476;10.986;2023-03-01T06:19:16;28.05;;;18.98;;
12878;SDS011;20617;49.476;10.986;2023-03-01T06:21:27;30.80;;;20.73;;
12878;SDS011;20617;49.476;10.986;2023-03-01T06:23:32;27.27;;;19.13;;
12878;SDS011;20617;49.476;10.986;2023-03-01T06:25:37;29.80;;;18.73;;
12878;SDS011;20617;49.476;10.986;2023-03-01T06:27:42;30.67;;;18.65;;
12878;SDS011;20617;49.476;10.986;2023-03-01T06:29:48;30.38;;;20.35;;
12878;SDS011;20617;49.476;10.986;2023-03-01T06:31:53;28.40;;;19.35;;
12878;SDS011;20617;49.476;10.986;2023-03-01T06:33:58;30.33;;;19.52;;
12878;SDS011;20617;49.476;10.986;2023-03-01T06:36:06;31.25;;;21.15;;
12878;SDS011;20617;49.476;10.986;2023-03-01T06:38:12;29.02;;;18.52;;
12878;SDS011;20617;49.476;10.986;2023-03-01T06:40:20;28.70;;;18.65;;
12878;SDS011;20617;49.476;10.986;2023-03-01T06:42:24;29.55;;;19.20;;
12878;SDS011;20617;49.476;10.986;2023-03-01T06:44:29;31.13;;;18.63;;
12878;SDS011;20617;49.476;10.986;2023-03-01T06:46:35;27.83;;;18.70;;
12878;SDS011;20617;49.476;10.986;2023-03-01T06:48:39;26.70;;;18.25;;
12878;SDS011;20617;49.476;10.986;2023-03-01T06:50:44;26.35;;;18.88;;
12878;SDS011;20617;49.476;10.986;2023-03-01T06:52:54;29.05;;;18.58;;
12878;SDS011;20617;49.476;10.986;2023-03-01T06:55:00;31.33;;;19.17;;
12878;SDS011;20617;49.476;10.986;2023-03-01T06:57:05;31.88;;;19.05;;
12878;SDS011;20617;49.476;10.986;2023-03-01T06:59:10;28.75;;;19.60;;
12878;SDS011;20617;49.476;10.986;2023-03-01T07:01:15;34.28;;;19.85;;
12878;SDS011;20617;49.476;10.986;2023-03-01T07:03:20;28.73;;;19.15;;
12878;SDS011;20617;49.476;10.986;2023-03-01T07:05:25;30.88;;;19.23;;
12878;SDS011;20617;49.476;10.986;2023-03-01T07:07:30;30.33;;;20.10;;
12878;SDS011;20617;49.476;10.986;2023-03-01T07:09:37;30.05;;;17.67;;
12878;SDS011;20617;49.476;10.986;2023-03-01T07:11:42;27.65;;;18.92;;
12878;SDS011;20617;49.476;10.986;2023-03-01T07:13:48;30.30;;;19.75;;
12878;SDS011;20617;49.476;10.986;2023-03-01T07:15:53;32.83;;;20.40;;
12878;SDS011;20617;49.476;10.986;2023-03-01T07:20:03;29.02;;;18.95;;
12878;SDS011;20617;49.476;10.986;2023-03-01T07:22:08;30.85;;;19.42;;
12878;SDS011;20617;49.476;10.986;2023-03-01T07:24:13;31.17;;;19.65;;
12878;SDS011;20617;49.476;10.986;2023-03-01T07:26:21;27.02;;;17.92;;
12878;SDS011;20617;49.476;10.986;2023-03-01T07:28:26;31.52;;;18.83;;
12878;SDS011;20617;49.476;10.986;2023-03-01T07:32:36;32.85;;;20.50;;
12878;SDS011;20617;49.476;10.986;2023-03-01T07:34:41;32.58;;;22.63;;
12878;SDS011;20617;49.476;10.986;2023-03-01T07:36:46;37.78;;;24.73;;
12878;SDS011;20617;49.476;10.986;2023-03-01T07:38:51;30.17;;;21.42;;
12878;SDS011;20617;49.476;10.986;2023-03-01T07:40:57;32.58;;;20.38;;
12878;SDS011;20617;49.476;10.986;2023-03-01T07:43:06;27.73;;;18.90;;
12878;SDS011;20617;49.476;10.986;2023-03-01T07:45:11;30.38;;;20.15;;
12878;SDS011;20617;49.476;10.986;2023-03-01T07:47:16;32.28;;;21.65;;
12878;SDS011;20617;49.476;10.986;2023-03-01T07:49:21;28.88;;;18.95;;
12878;SDS011;20617;49.476;10.986;2023-03-01T07:51:27;28.83;;;19.02;;
12878;SDS011;20617;49.476;10.986;2023-03-01T07:53:33;30.25;;;20.38;;
12878;SDS011;20617;49.476;10.986;2023-03-01T07:55:38;28.75;;;19.17;;
12878;SDS011;20617;49.476;10.986;2023-03-01T07:57:43;34.03;;;21.02;;
12878;SDS011;20617;49.476;10.986;2023-03-01T07:59:50;35.17;;;20.02;;
12878;SDS011;20617;49.476;10.986;2023-03-01T08:01:55;30.02;;;20.05;;
12878;SDS011;20617;49.476;10.986;2023-03-01T08:04:00;28.80;;;19.38;;
12878;SDS011;20617;49.476;10.986;2023-03-01T08:06:09;28.42;;;18.77;;
12878;SDS011;20617;49.476;10.986;2023-03-01T08:08:14;28.15;;;17.00;;
12878;SDS011;20617;49.476;10.986;2023-03-01T08:10:20;26.58;;;17.75;;
12878;SDS011;20617;49.476;10.986;2023-03-01T08:12:25;29.20;;;18.85;;
12878;SDS011;20617;49.476;10.986;2023-03-01T08:14:29;30.88;;;18.90;;
12878;SDS011;20617;49.476;10.986;2023-03-01T08:16:37;28.85;;;18.60;;
12878;SDS011;20617;49.476;10.986;2023-03-01T08:18:42;28.90;;;18.67;;
12878;SDS011;20617;49.476;10.986;2023-03-01T08:20:47;31.27;;;18.55;;
12878;SDS011;20617;49.476;10.986;2023-03-01T08:22:52;25.02;;;17.00;;
12878;SDS011;20617;49.476;10.986;2023-03-01T08:24:57;28.67;;;19.00;;
12878;SDS011;20617;49.476;10.986;2023-03-01T08:27:02;30.73;;;17.92;;
12878;SDS011;20617;49.476;10.986;2023-03-01T08:29:07;28.10;;;18.00;;
12878;SDS011;20617;49.476;10.986;2023-03-01T08:31:16;25.75;;;18.98;;
12878;SDS011;20617;49.476;10.986;2023-03-01T08:33:26;28.05;;;18.88;;
12878;SDS011;20617;49.476;10.986;2023-03-01T08:35:33;28.13;;;18.08;;
12878;SDS011;20617;49.476;10.986;2023-03-01T08:37:38;30.55;;;18.73;;
12878;SDS011;20617;49.476;10.986;2023-03-01T08:39:43;32.33;;;19.13;;
12878;SDS011;20617;49.476;10.986;2023-03-01T08:41:48;25.52;;;17.50;;
12878;SDS011;20617;49.476;10.986;2023-03-01T08:43:53;27.73;;;18.13;;
12878;SDS011;20617;49.476;10.986;2023-03-01T08:46:00;27.83;;;17.95;;
12878;SDS011;20617;49.476;10.986;2023-03-01T08:48:05;28.38;;;17.98;;
12878;SDS011;20617;49.476;10.986;2023-03-01T08:50:12;26.63;;;18.38;;
12878;SDS011;20617;49.476;10.986;2023-03-01T08:52:17;29.05;;;18.70;;
12878;SDS011;20617;49.476;10.986;2023-03-01T08:54:23;28.52;;;17.83;;
12878;SDS011;20617;49.476;10.986;2023-03-01T08:56:27;28.88;;;17.42;;
12878;SDS011;20617;49.476;10.986;2023-03-01T08:58:35;26.98;;;18.60;;
12878;SDS011;20617;49.476;10.986;2023-03-01T09:00:41;24.23;;;16.98;;
12878;SDS011;20617;49.476;10.986;2023-03-01T09:02:46;26.15;;;17.77;;
12878;SDS011;20617;49.476;10.986;2023-03-01T09:04:50;26.70;;;17.50;;
12878;SDS011;20617;49.476;10.986;2023-03-01T09:07:00;28.02;;;18.48;;
12878;SDS011;20617;49.476;10.986;2023-03-01T09:09:05;26.38;;;17.55;;
12878;SDS011;20617;49.476;10.986;2023-03-01T09:13:17;28.23;;;17.50;;
12878;SDS011;20617;49.476;10.986;2023-03-01T09:15:22;27.30;;;17.92;;
12878;SDS011;20617;49.476;10.986;2023-03-01T09:17:27;27.60;;;17.15;;
12878;SDS011;20617;49.476;10.986;2023-03-01T09:19:34;27.20;;;18.75;;
12878;SDS011;20617;49.476;10.986;2023-03-01T09:21:39;26.10;;;18.10;;
12878;SDS011;20617;49.476;10.986;2023-03-01T09:23:56;26.20;;;16.85;;
12878;SDS011;20617;49.476;10.986;2023-03-01T09:26:02;28.30;;;17.70;;
12878;SDS011;20617;49.476;10.986;2023-03-01T09:28:07;27.77;;;18.52;;
12878;SDS011;20617;49.476;10.986;2023-03-01T09:30:29;26.10;;;17.60;;
12878;SDS011;20617;49.476;10.986;2023-03-01T09:32:34;25.88;;;17.92;;
12878;SDS011;20617;49.476;10.986;2023-03-01T09:34:44;24.35;;;15.27;;
12878;SDS011;20617;49.476;10.986;2023-03-01T09:37:01;23.85;;;15.38;;
12878;SDS011;20617;49.476;10.986;2023-03-01T09:39:08;24.42;;;16.58;;
12878;SDS011;20617;49.476;10.986;2023-03-01T09:41:18;26.40;;;17.02;;
12878;SDS011;20617;49.476;10.986;2023-03-01T09:43:37;24.00;;;16.55;;
12878;SDS011;20617;49.476;10.986;2023-03-01T09:45:49;24.95;;;16.17;;
12878;SDS011;20617;49.476;10.986;2023-03-01T09:47:58;23.67;;;16.85;;
12878;SDS011;20617;49.476;10.986;2023-03-01T09:50:04;25.38;;;16.40;;
12878;SDS011;20617;49.476;10.986;2023-03-01T09:52:19;24.05;;;15.32;;
12878;SDS011;20617;49.476;10.986;2023-03-01T09:54:32;24.48;;;15.43;;
12878;SDS011;20617;49.476;10.986;2023-03-01T09:56:39;24.17;;;16.75;;
12878;SDS011;20617;49.476;10.986;2023-03-01T09:58:47;24.85;;;15.65;;
12878;SDS011;20617;49.476;10.986;2023-03-01T10:00:56;25.63;;;16.63;;
12878;SDS011;20617;49.476;10.986;2023-03-01T10:03:09;23.40;;;16.77;;
12878;SDS011;20617;49.476;10.986;2023-03-01T10:05:33;22.63;;;15.85;;
12878;SDS011;20617;49.476;10.986;2023-03-01T10:07:43;21.55;;;15.05;;
12878;SDS011;20617;49.476;10.986;2023-03-01T10:09:55;22.02;;;16.00;;
12878;SDS011;20617;49.476;10.986;2023-03-01T10:12:02;22.13;;;14.82;;
12878;SDS011;20617;49.476;10.986;2023-03-01T10:14:15;22.00;;;15.48;;
12878;SDS011;20617;49.476;10.986;2023-03-01T10:16:35;23.23;;;16.45;;
12878;SDS011;20617;49.476;10.986;2023-03-01T10:18:45;24.83;;;15.38;;
12878;SDS011;20617;49.476;10.986;2023-03-01T10:20:53;23.20;;;15.30;;
12878;SDS011;20617;49.476;10.986;2023-03-01T10:23:00;22.85;;;15.98;;
12878;SDS011;20617;49.476;10.986;2023-03-01T10:25:08;23.00;;;14.63;;
12878;SDS011;20617;49.476;10.986;2023-03-01T10:27:21;22.83;;;15.45;;
12878;SDS011;20617;49.476;10.986;2023-03-01T10:29:29;22.67;;;16.00;;
12878;SDS011;20617;49.476;10.986;2023-03-01T10:31:40;25.83;;;17.20;;
12878;SDS011;20617;49.476;10.986;2023-03-01T10:33:47;21.58;;;15.55;;
12878;SDS011;20617;49.476;10.986;2023-03-01T10:35:56;21.08;;;15.00;;
12878;SDS011;20617;49.476;10.986;2023-03-01T10:38:05;21.15;;;15.18;;
12878;SDS011;20617;49.476;10.986;2023-03-01T10:40:16;23.08;;;15.93;;
12878;SDS011;20617;49.476;10.986;2023-03-01T10:42:25;21.92;;;15.63;;
12878;SDS011;20617;49.476;10.986;2023-03-01T10:44:36;22.30;;;15.02;;
12878;SDS011;20617;49.476;10.986;2023-03-01T10:46:45;22.50;;;15.27;;
12878;SDS011;20617;49.476;10.986;2023-03-01T10:49:12;20.52;;;14.07;;
12878;SDS011;20617;49.476;10.986;2023-03-01T10:51:21;21.58;;;14.90;;
12878;SDS011;20617;49.476;10.986;2023-03-01T10:53:27;23.33;;;15.07;;
12878;SDS011;20617;49.476;10.986;2023-03-01T10:55:41;22.02;;;15.43;;
12878;SDS011;20617;49.476;10.986;2023-03-01T10:57:46;23.10;;;16.00;;
12878;SDS011;20617;49.476;10.986;2023-03-01T11:00:00;21.30;;;15.30;;
12878;SDS011;20617;49.476;10.986;2023-03-01T11:02:16;23.70;;;16.05;;
12878;SDS011;20617;49.476;10.986;2023-03-01T11:04:26;23.83;;;16.10;;
12878;SDS011;20617;49.476;10.986;2023-03-01T11:06:34;23.48;;;16.00;;
12878;SDS011;20617;49.476;10.986;2023-03-01T11:08:41;21.23;;;14.85;;
12878;SDS011;20617;49.476;10.986;2023-03-01T11:10:49;24.25;;;14.88;;
12878;SDS011;20617;49.476;10.986;2023-03-01T11:13:04;22.00;;;15.15;;
12878;SDS011;20617;49.476;10.986;2023-03-01T11:15:20;24.42;;;14.88;;
12878;SDS011;20617;49.476;10.986;2023-03-01T11:17:30;24.42;;;15.55;;
12878;SDS011;20617;49.476;10.986;2023-03-01T11:20:02;24.48;;;15.02;;
12878;SDS011;20617;49.476;10.986;2023-03-01T11:22:19;22.33;;;14.32;;
12878;SDS011;20617;49.476;10.986;2023-03-01T11:24:31;21.38;;;15.30;;
12878;SDS011;20617;49.476;10.986;2023-03-01T11:26:47;20.45;;;14.90;;
12878;SDS011;20617;49.476;10.986;2023-03-01T11:28:56;22.77;;;14.75;;
12878;SDS011;20617;49.476;10.986;2023-03-01T11:31:06;21.63;;;14.43;;
12878;SDS011;20617;49.476;10.986;2023-03-01T11:33:16;18.73;;;14.25;;
12878;SDS011;20617;49.476;10.986;2023-03-01T11:35:25;19.63;;;13.77;;
12878;SDS011;20617;49.476;10.986;2023-03-01T11:37:33;21.60;;;13.98;;
12878;SDS011;20617;49.476;10.986;2023-03-01T11:39:43;18.95;;;14.95;;
12878;SDS011;20617;49.476;10.986;2023-03-01T11:42:00;21.73;;;14.52;;
12878;SDS011;20617;49.476;10.986;2023-03-01T11:44:20;22.58;;;14.93;;
12878;SDS011;20617;49.476;10.986;2023-03-01T11:51:46;17.75;;;13.73;;
12878;SDS011;20617;49.476;10.986;2023-03-01T11:54:04;20.25;;;14.45;;
12878;SDS011;20617;49.476;10.986;2023-03-01T11:58:33;19.65;;;12.95;;
12878;SDS011;20617;49.476;10.986;2023-03-01T12:00:54;20.30;;;13.57;;
12878;SDS011;20617;49.476;10.986;2023-03-01T12:03:16;22.50;;;13.07;;
12878;SDS011;20617;49.476;10.986;2023-03-01T12:05:42;18.42;;;12.98;;
12878;SDS011;20617;49.476;10.986;2023-03-01T12:08:01;18.50;;;12.93;;
12878;SDS011;20617;49.476;10.986;2023-03-01T12:10:23;20.88;;;12.85;;
12878;SDS011;20617;49.476;10.986;2023-03-01T12:12:33;18.98;;;13.20;;
12878;SDS011;20617;49.476;10.986;2023-03-01T12:14:55;19.53;;;13.20;;
12878;SDS011;20617;49.476;10.986;2023-03-01T12:17:26;19.60;;;13.38;;
12878;SDS011;20617;49.476;10.986;2023-03-01T12:22:21;17.83;;;12.88;;
12878;SDS011;20617;49.476;10.986;2023-03-01T12:24:41;20.25;;;12.90;;
12878;SDS011;20617;49.476;10.986;2023-03-01T12:26:59;19.67;;;13.00;;
12878;SDS011;20617;49.476;10.986;2023-03-01T12:29:23;20.13;;;12.57;;
12878;SDS011;20617;49.476;10.986;2023-03-01T12:31:41;18.33;;;12.77;;
12878;SDS011;20617;49.476;10.986;2023-03-01T12:33:58;17.95;;;11.75;;
12878;SDS011;20617;49.476;10.986;2023-03-01T12:36:13;19.00;;;14.05;;
12878;SDS011;20617;49.476;10.986;2023-03-01T12:38:32;22.08;;;12.68;;
12878;SDS011;20617;49.476;10.986;2023-03-01T12:43:32;14.73;;;10.75;;
12878;SDS011;20617;49.476;10.986;2023-03-01T12:45:48;19.02;;;11.57;;
12878;SDS011;20617;49.476;10.986;2023-03-01T12:48:08;20.10;;;11.85;;